Time;durP1;ratioP1;P1;durP2;ratioP2;P2;SDS_P1;SDS_P2;PMS_P1;PMS_P2;Temp;Humidity;BMP_temperature;BMP_pressure;BME280_temperature;BME280_humidity;BME280_pressure;Samples;Min_cycle;Max_cycle;Signal;HPM_P1;HPM_P2
2021/12/20 00:00:12;;;;;;;1.00;1.00;;;;;;;-14.42;85.46;102159.19;5012808;28;20085;-72
2021/12/20 00:02:39;;;;;;;1.23;1.17;;;;;;;-14.41;85.60;102167.56;5012984;28;20076;-72
2021/12/20 00:05:08;;;;;;;0.90;0.90;;;;;;;-14.44;85.10;102165.72;5012969;28;20041;-72
2021/12/20 00:07:35;;;;;;;0.93;0.93;;;;;;;-14.45;85.78;102179.00;5012994;28;20132;-72
2021/12/20 00:10:02;;;;;;;1.00;1.00;;;;;;;-14.48;85.20;102186.28;5012948;28;20132;-72
2021/12/20 00:12:29;;;;;;;1.73;1.63;;;;;;;-14.60;85.54;102188.81;5013090;28;20137;-72
2021/12/20 00:14:57;;;;;;;0.90;0.90;;;;;;;-14.59;85.36;102192.19;5013004;28;20076;-72
2021/12/20 00:17:24;;;;;;;1.70;1.60;;;;;;;-14.61;84.92;102192.09;5013038;28;20132;-72
2021/12/20 00:19:51;;;;;;;1.35;1.25;;;;;;;-14.59;85.60;102183.06;5025762;23;20073;-62
2021/12/20 00:22:18;;;;;;;0.90;0.90;;;;;;;-14.57;84.90;102175.66;5011574;28;20046;-65
2021/12/20 00:24:45;;;;;;;1.52;1.30;;;;;;;-14.58;85.30;102186.44;5012716;28;20474;-63
2021/12/20 00:27:14;;;;;;;4.47;1.73;;;;;;;-14.79;85.28;102193.31;5012711;28;20140;-64
2021/12/20 00:29:41;;;;;;;1.17;1.17;;;;;;;-14.79;85.59;102189.19;5012560;28;20507;-65
2021/12/20 00:32:09;;;;;;;;;;;;;;;-14.87;86.06;102197.75;5013439;28;20149;-63
2021/12/20 00:34:37;;;;;;;1.20;1.20;;;;;;;-14.88;85.88;102200.13;5012624;28;20386;-64
2021/12/20 00:40:19;;;;;;;1.30;1.30;;;;;;;-14.87;84.70;102199.38;5012538;28;20133;-64
2021/12/20 00:42:36;;;;;;;1.25;1.23;;;;;;;-15.07;85.99;102198.84;5012464;28;20467;-63
2021/12/20 00:45:04;;;;;;;1.60;1.50;;;;;;;-14.94;85.74;102211.44;5012352;28;20046;-63
2021/12/20 00:47:32;;;;;;;1.23;1.20;;;;;;;-14.86;84.63;102201.13;5012726;28;20137;-64
2021/12/20 00:49:59;;;;;;;1.17;1.17;;;;;;;-14.91;84.83;102205.78;5012732;28;20140;-67
2021/12/20 00:52:26;;;;;;;1.27;1.23;;;;;;;-14.98;85.00;102203.59;5012327;28;20123;-68
2021/12/20 00:54:53;;;;;;;3.58;1.48;;;;;;;-15.22;85.51;102205.22;5012091;28;20563;-67
2021/12/20 00:57:20;;;;;;;0.93;0.93;;;;;;;-15.11;85.58;102214.34;5012227;28;20137;-68
2021/12/20 00:59:47;;;;;;;1.40;1.30;;;;;;;-15.08;85.51;102211.19;5013612;28;20046;-63
2021/12/20 01:02:14;;;;;;;2.65;2.05;;;;;;;-15.23;85.22;102209.34;5016804;28;20074;-62
2021/12/20 01:04:42;;;;;;;1.55;1.45;;;;;;;-15.15;85.19;102210.78;5015998;28;20599;-63
2021/12/20 01:07:09;;;;;;;1.17;1.10;;;;;;;-15.20;85.08;102214.56;5016085;28;20065;-63
2021/12/20 01:09:36;;;;;;;;;;;;;;;-15.21;85.35;102216.94;5016634;28;20140;-63
2021/12/20 01:12:06;;;;;;;1.60;1.50;;;;;;;-15.27;84.42;102214.00;5016276;28;19925;-63
2021/12/20 01:14:37;;;;;;;1.08;1.08;;;;;;;-15.24;85.40;102205.09;5016268;28;20439;-63
2021/12/20 01:17:05;;;;;;;1.42;1.33;;;;;;;-15.21;84.67;102217.81;5016059;28;20484;-63
2021/12/20 01:19:32;;;;;;;1.20;1.20;;;;;;;-15.19;85.07;102223.78;5016042;28;20081;-63
2021/12/20 01:22:01;;;;;;;0.95;0.95;;;;;;;-15.15;84.68;102215.75;5016351;28;20096;-64
2021/12/20 01:24:28;;;;;;;1.20;1.20;;;;;;;-15.22;84.01;102230.19;5015875;28;20508;-64
2021/12/20 01:26:55;;;;;;;;;;;;;;;-15.31;83.90;102232.00;5016419;28;20141;-63
2021/12/20 01:29:22;;;;;;;1.45;1.35;;;;;;;-15.32;83.68;102236.13;5015887;28;19927;-63
2021/12/20 01:31:48;;;;;;;;;;;;;;;-15.42;85.40;102241.22;5016139;28;20128;-63
2021/12/20 01:34:15;;;;;;;0.95;0.95;;;;;;;-15.45;85.24;102244.34;5015750;28;19921;-63
2021/12/20 01:36:43;;;;;;;0.90;0.90;;;;;;;-15.62;84.83;102245.59;5015716;28;20046;-66
2021/12/20 01:39:11;;;;;;;1.50;1.40;;;;;;;-15.64;85.69;102252.09;5015470;28;20149;-64
2021/12/20 01:41:41;;;;;;;1.10;1.10;;;;;;;-15.58;84.89;102249.19;5015364;28;20054;-63
2021/12/20 01:44:08;;;;;;;1.08;1.08;;;;;;;-15.50;85.61;102242.28;5015952;28;20137;-63
2021/12/20 01:46:34;;;;;;;;;;;;;;;-15.64;84.96;102244.63;5016158;28;20520;-63
2021/12/20 01:49:04;;;;;;;1.00;1.00;;;;;;;-15.60;85.04;102244.06;5015888;28;19968;-63
2021/12/20 01:51:46;;;;;;;1.70;1.58;;;;;;;-15.73;85.31;102251.44;5015328;28;20049;-63
2021/12/20 01:54:14;;;;;;;1.00;1.00;;;;;;;-15.61;84.63;102252.34;5015300;28;20078;-64
2021/12/20 01:56:43;;;;;;;1.17;1.17;;;;;;;-15.61;84.65;102243.97;5015352;28;20049;-67
2021/12/20 01:59:11;;;;;;;1.20;1.17;;;;;;;-15.73;85.28;102251.44;5015233;28;20074;-63
2021/12/20 02:01:38;;;;;;;1.10;1.10;;;;;;;-15.88;86.24;102247.78;5015130;28;20077;-63
2021/12/20 02:04:08;;;;;;;;;;;;;;;-15.78;85.69;102257.72;5016101;28;20050;-63
2021/12/20 02:06:38;;;;;;;1.13;1.13;;;;;;;-15.72;84.47;102254.78;5015455;28;20276;-66
2021/12/20 02:09:08;;;;;;;1.10;1.10;;;;;;;-15.74;84.48;102261.31;5015239;28;20100;-63
2021/12/20 02:11:37;;;;;;;1.20;1.10;;;;;;;-15.81;84.84;102259.97;5014578;28;20046;-63
2021/12/20 02:14:05;;;;;;;1.00;1.00;;;;;;;-15.78;84.71;102257.72;5015515;28;20104;-68
2021/12/20 02:16:33;;;;;;;1.33;1.27;;;;;;;-15.91;85.96;102260.03;5015314;28;20129;-63
2021/12/20 02:19:03;;;;;;;1.02;1.02;;;;;;;-15.85;84.88;102262.97;5014929;28;20137;-63
2021/12/20 02:21:31;;;;;;;2.33;1.80;;;;;;;-16.02;85.12;102266.72;5025781;23;20069;-71
2021/12/20 02:23:59;;;;;;;1.60;1.50;;;;;;;-15.98;85.56;102255.34;5014646;28;20056;-73
2021/12/20 02:26:25;;;;;;;;;;;;;;;-16.07;85.23;102255.50;5015041;28;20052;-72
2021/12/20 02:28:55;;;;;;;0.95;0.95;;;;;;;-16.21;85.36;102266.03;5014671;28;20023;-72
2021/12/20 02:39:40;;;;;;;1.27;1.23;;;;;;;-16.27;85.23;102278.91;5014495;28;20057;-72
2021/12/20 02:42:09;;;;;;;;;;;;;;;-16.37;84.53;102276.44;5015370;28;20540;-72
2021/12/20 02:44:36;;;;;;;1.33;1.23;;;;;;;-16.53;85.84;102281.84;5014705;28;19927;-72
2021/12/20 02:47:08;;;;;;;;;;;;;;;-16.66;85.41;102279.16;5014854;28;20584;-72
2021/12/20 02:49:36;;;;;;;0.90;0.90;;;;;;;-16.54;87.13;102280.09;5014618;28;19921;-72
2021/12/20 02:52:06;;;;;;;1.02;1.02;;;;;;;-16.75;86.44;102279.28;5014442;28;20077;-72
2021/12/20 02:54:34;;;;;;;1.00;1.00;;;;;;;-16.68;87.21;102271.56;5014347;28;20137;-72
2021/12/20 02:57:01;;;;;;;1.10;1.10;;;;;;;-16.50;86.81;102275.47;5014147;28;20066;-72
2021/12/20 02:59:28;;;;;;;1.50;1.40;;;;;;;-16.52;85.73;102272.00;5014123;28;20133;-72
2021/12/20 03:01:56;;;;;;;;;;;;;;;-16.57;85.68;102274.88;5014449;28;20136;-72
2021/12/20 03:04:23;;;;;;;1.05;1.05;;;;;;;-16.64;85.98;102272.66;5013879;28;20385;-72
2021/12/20 03:06:53;;;;;;;1.10;1.10;;;;;;;-16.95;88.02;102278.63;5014116;28;20054;-72
2021/12/20 03:09:28;;;;;;;1.55;1.45;;;;;;;-17.04;87.58;102277.88;5013866;28;20052;-72
2021/12/20 03:11:58;;;;;;;1.10;1.10;;;;;;;-16.92;88.08;102276.38;5013765;28;20046;-72
2021/12/20 03:14:31;;;;;;;2.13;1.92;;;;;;;-17.06;88.33;102276.00;5013786;28;20473;-72
2021/12/20 03:16:59;;;;;;;1.20;1.10;;;;;;;-17.01;88.70;102273.13;5013976;28;20050;-73
2021/12/20 03:19:27;;;;;;;1.48;1.38;;;;;;;-17.04;88.54;102272.88;5013739;28;20141;-72
2021/12/20 03:21:55;;;;;;;1.77;1.65;;;;;;;-17.05;88.11;102276.13;5025284;23;20142;-68
2021/12/20 03:24:23;;;;;;;1.67;1.45;;;;;;;-17.03;87.57;102276.25;5012580;28;20104;-69
2021/12/20 03:26:51;;;;;;;2.22;1.63;;;;;;;-17.04;87.34;102275.38;5013700;28;20053;-67
2021/12/20 03:29:18;;;;;;;1.80;1.70;;;;;;;-16.97;87.17;102266.78;5013578;28;20046;-69
2021/12/20 03:31:45;;;;;;;1.70;1.60;;;;;;;-17.16;88.12;102269.41;5013532;28;20045;-69
2021/12/20 03:34:12;;;;;;;1.23;1.20;;;;;;;-17.27;87.43;102268.53;5013681;28;20487;-68
2021/12/20 03:36:39;;;;;;;;;;;;;;;-17.19;88.10;102272.50;5014165;28;20137;-68
2021/12/20 03:39:08;;;;;;;1.00;1.00;;;;;;;-17.16;88.40;102275.28;5013213;28;20360;-68
2021/12/20 03:41:38;;;;;;;1.50;1.40;;;;;;;-17.15;86.86;102274.50;5013313;28;20045;-68
2021/12/20 03:44:06;;;;;;;1.60;1.50;;;;;;;-17.30;87.64;102275.75;5013347;28;20070;-68
2021/12/20 03:46:33;;;;;;;2.15;1.95;;;;;;;-17.24;88.26;102271.25;5013446;28;20556;-68
2021/12/20 03:49:00;;;;;;;1.20;1.15;;;;;;;-17.28;87.87;102265.94;5013328;28;20473;-66
2021/12/20 03:51:27;;;;;;;1.25;1.10;;;;;;;-17.42;89.11;102267.28;5013343;28;20068;-68
2021/12/20 03:53:54;;;;;;;3.03;1.98;;;;;;;-17.24;87.20;102263.81;5013356;28;20041;-69
2021/12/20 03:56:21;;;;;;;1.98;1.80;;;;;;;-17.19;86.60;102266.66;5013406;28;20485;-69
2021/12/20 03:58:49;;;;;;;1.45;1.38;;;;;;;-17.26;86.65;102262.84;5013305;28;20091;-68
2021/12/20 04:01:17;;;;;;;1.58;1.48;;;;;;;-17.36;86.94;102266.19;5013039;28;20054;-66
2021/12/20 04:03:44;;;;;;;7.78;2.05;;;;;;;-17.27;87.54;102266.06;5013399;28;20137;-70
2021/12/20 04:06:15;;;;;;;1.40;1.30;;;;;;;-17.37;87.21;102264.41;5013135;28;20421;-63
2021/12/20 04:08:43;;;;;;;1.33;1.27;;;;;;;-17.36;87.41;102266.19;5013238;28;20153;-67
2021/12/20 04:11:11;;;;;;;1.58;1.48;;;;;;;-17.22;87.76;102254.84;5012861;28;20607;-65
2021/12/20 04:13:38;;;;;;;1.50;1.40;;;;;;;-17.31;87.44;102259.09;5012962;28;20133;-63
2021/12/20 04:16:06;;;;;;;;;;;;;;;-17.27;87.60;102267.66;5013312;28;20068;-67
2021/12/20 04:18:33;;;;;;;1.10;1.10;;;;;;;-17.30;87.66;102255.00;5012949;28;20008;-65
2021/12/20 04:21:00;;;;;;;;;;;;;;;-17.26;88.40;102257.84;5013666;28;20050;-69
2021/12/20 04:23:27;;;;;;;2.58;1.30;;;;;;;-17.41;87.27;102257.47;5012714;28;19928;-67
2021/12/20 04:25:54;;;;;;;;;;;;;;;-17.42;88.96;102263.19;5013367;28;20054;-67
2021/12/20 04:28:21;;;;;;;1.50;1.40;;;;;;;-17.27;89.00;102252.75;5012926;28;20016;-67
2021/12/20 04:30:47;;;;;;;;;;;;;;;-17.23;89.14;102259.72;5013070;28;20113;-66
2021/12/20 04:33:16;;;;;;;1.50;1.40;;;;;;;-17.37;88.59;102251.97;5012917;28;20004;-66
2021/12/20 04:35:43;;;;;;;1.35;1.35;;;;;;;-17.25;88.87;102256.22;5012514;28;20092;-69
2021/12/20 04:38:10;;;;;;;1.20;1.10;;;;;;;-17.35;88.38;102254.59;5012451;28;20054;-68
2021/12/20 04:40:38;;;;;;;1.42;1.35;;;;;;;-17.29;88.64;102250.13;5012346;28;20052;-69
2021/12/20 04:43:05;;;;;;;3.28;1.83;;;;;;;-17.32;89.40;102254.00;5012521;28;20133;-68
2021/12/20 04:45:35;;;;;;;2.63;2.42;;;;;;;-17.29;90.16;102251.75;5012330;28;20074;-68
2021/12/20 04:48:02;;;;;;;1.27;1.20;;;;;;;-17.18;88.22;102256.00;5012619;28;20507;-68
2021/12/20 04:50:31;;;;;;;2.70;1.80;;;;;;;-17.26;89.20;102256.97;5012346;28;20077;-69
2021/12/20 04:52:58;;;;;;;1.30;1.30;;;;;;;-17.20;89.34;102258.34;5012132;28;20042;-67
2021/12/20 04:55:28;;;;;;;7.88;1.73;;;;;;;-17.07;88.01;102252.72;5012326;28;20092;-69
2021/12/20 04:57:56;;;;;;;1.60;1.42;;;;;;;-16.98;87.30;102240.13;5012440;28;20132;-68
2021/12/20 05:00:25;;;;;;;1.20;1.10;;;;;;;-17.05;88.88;102247.88;5012210;28;20060;-65
2021/12/20 05:02:52;;;;;;;1.63;1.52;;;;;;;-16.96;88.13;102241.13;5012508;28;20129;-68
2021/12/20 05:05:19;;;;;;;;;;;;;;;-17.01;88.33;102239.91;5012860;28;20130;-65
2021/12/20 05:07:47;;;;;;;;;;;;;;;-17.00;88.87;102237.53;5013034;28;19996;-64
2021/12/20 05:10:26;;;;;;;1.42;1.35;;;;;;;-16.98;88.75;102236.03;5012396;28;19925;-67
2021/12/20 05:12:54;;;;;;;1.25;1.25;;;;;;;-17.02;88.99;102234.06;5012097;28;20046;-67
2021/12/20 05:15:22;;;;;;;1.95;1.42;;;;;;;-16.94;87.81;102233.03;5012537;28;20141;-64
2021/12/20 05:17:49;;;;;;;1.58;1.30;;;;;;;-16.96;87.78;102226.19;5013123;28;20132;-64
2021/12/20 05:20:15;;;;;;;;;;;;;;;-16.93;89.41;102229.78;5013430;28;20070;-67
2021/12/20 05:22:42;;;;;;;1.52;1.33;;;;;;;-17.05;88.18;102225.47;5012683;28;20012;-66
2021/12/20 05:25:11;;;;;;;;;;;;;;;-17.00;87.56;102230.06;5013543;28;20060;-68
2021/12/20 05:27:38;;;;;;;1.55;1.45;;;;;;;-17.00;87.93;102227.59;5013717;28;20027;-64
2021/12/20 05:30:08;;;;;;;1.00;1.00;;;;;;;-16.71;88.70;102227.34;5014354;28;20145;-64
2021/12/20 05:32:36;;;;;;;1.33;1.30;;;;;;;-16.80;87.65;102209.22;5012492;28;20125;-66
2021/12/20 05:35:04;;;;;;;2.38;1.77;;;;;;;-16.92;87.21;102206.66;5011814;28;20149;-68
2021/12/20 05:37:31;;;;;;;1.63;1.52;;;;;;;-16.75;87.89;102197.97;5011993;28;20138;-63
2021/12/20 05:39:58;;;;;;;1.20;1.20;;;;;;;-16.74;88.27;102188.88;5011728;28;20061;-64
2021/12/20 05:42:27;;;;;;;1.48;1.40;;;;;;;-16.71;88.02;102191.63;5011907;28;20058;-67
2021/12/20 05:44:55;;;;;;;1.77;1.67;;;;;;;-16.65;88.51;102194.56;5012018;28;20155;-65
2021/12/20 05:47:23;;;;;;;4.20;1.80;;;;;;;-16.69;87.60;102205.94;5014003;28;20481;-65
2021/12/20 05:49:50;;;;;;;1.70;1.60;;;;;;;-16.65;88.06;102201.19;5015457;28;20050;-68
2021/12/20 05:52:18;;;;;;;1.80;1.70;;;;;;;-16.56;87.50;102199.41;5015472;28;20493;-67
2021/12/20 05:54:45;;;;;;;1.33;1.33;;;;;;;-16.34;86.81;102199.41;5015254;28;20567;-69
2021/12/20 05:57:12;;;;;;;1.33;1.23;;;;;;;-16.42;87.21;102198.84;5015433;28;20136;-66
2021/12/20 05:59:40;;;;;;;1.88;1.45;;;;;;;-16.51;87.61;102190.66;5015365;28;20145;-67
2021/12/20 06:02:08;;;;;;;3.05;2.17;;;;;;;-16.69;87.47;102193.47;5015332;28;20477;-68
2021/12/20 06:04:35;;;;;;;1.40;1.30;;;;;;;-16.57;87.54;102188.56;5015270;28;20049;-67
2021/12/20 06:07:02;;;;;;;1.67;1.42;;;;;;;-16.66;87.60;102194.47;5015172;28;20081;-67
2021/12/20 06:09:29;;;;;;;;;;;;;;;-16.66;87.20;102180.38;5015431;28;20133;-67
2021/12/20 06:11:59;;;;;;;;;;;;;;;-16.70;88.08;102184.25;5015495;28;20012;-69
2021/12/20 06:14:27;;;;;;;1.77;1.55;;;;;;;-16.62;86.84;102177.38;5015141;28;20295;-68
2021/12/20 06:16:57;;;;;;;1.83;1.73;;;;;;;-16.66;87.78;102177.91;5015081;28;20050;-65
2021/12/20 06:19:25;;;;;;;1.20;1.20;;;;;;;-16.66;87.28;102177.03;5014821;28;20048;-64
2021/12/20 06:21:53;;;;;;;2.38;2.17;;;;;;;-16.63;87.72;102174.78;5015407;28;20140;-69
2021/12/20 06:24:20;;;;;;;3.40;2.50;;;;;;;-16.47;86.68;102175.19;5015255;28;20050;-68
2021/12/20 06:26:47;;;;;;;1.88;1.77;;;;;;;-16.60;87.93;102180.84;5014821;28;20136;-68
2021/12/20 06:29:14;;;;;;;1.67;1.55;;;;;;;-16.58;88.06;102179.34;5014879;28;20595;-67
2021/12/20 06:31:41;;;;;;;3.67;1.83;;;;;;;-16.62;87.39;102181.47;5014512;28;20141;-67
2021/12/20 06:34:10;;;;;;;1.58;1.48;;;;;;;-16.51;87.42;102190.66;5014607;28;20140;-64
2021/12/20 06:36:37;;;;;;;2.15;2.05;;;;;;;-16.50;87.69;102177.44;5014559;28;20056;-64
2021/12/20 06:39:06;;;;;;;2.00;1.80;;;;;;;-16.53;87.13;102175.59;5014509;28;20137;-64
2021/12/20 06:41:33;;;;;;;2.15;2.03;;;;;;;-16.50;87.14;102180.81;5014587;28;20057;-64
2021/12/20 06:44:01;;;;;;;1.10;1.10;;;;;;;-16.35;87.43;102182.75;5014645;28;20046;-65
2021/12/20 06:46:29;;;;;;;1.35;1.25;;;;;;;-16.25;86.43;102187.69;5014319;28;20045;-63
2021/12/20 06:48:56;;;;;;;3.05;1.90;;;;;;;-16.41;86.55;102192.22;5014354;28;20056;-66
2021/12/20 06:51:25;;;;;;;3.47;1.80;;;;;;;-16.40;87.44;102193.97;5014657;28;20136;-65
2021/12/20 06:53:54;;;;;;;4.20;1.95;;;;;;;-16.32;87.45;102192.94;5014548;28;20137;-65
2021/12/20 06:56:21;;;;;;;1.70;1.60;;;;;;;-16.35;86.79;102201.06;5014629;28;20072;-67
2021/12/20 06:58:48;;;;;;;1.75;1.65;;;;;;;-16.24;86.65;102194.38;5013926;28;20408;-67
2021/12/20 07:01:15;;;;;;;1.27;1.20;;;;;;;-16.32;87.68;102191.31;5014078;28;20857;-64
2021/12/20 07:03:43;;;;;;;1.90;1.70;;;;;;;-16.16;86.69;102194.97;5014209;28;20072;-67
2021/12/20 07:06:10;;;;;;;1.80;1.67;;;;;;;-16.11;86.56;102201.16;5014254;28;20050;-64
2021/12/20 07:08:38;;;;;;;1.73;1.63;;;;;;;-16.11;87.18;102201.16;5014133;28;20046;-64
2021/12/20 07:11:08;;;;;;;1.65;1.55;;;;;;;-16.03;87.10;102191.03;5013741;28;20050;-67
2021/12/20 07:13:35;;;;;;;2.17;1.90;;;;;;;-16.10;87.97;102188.84;5013867;28;20042;-64
2021/12/20 07:16:01;;;;;;;;;;;;;;;-15.96;87.10;102193.97;5014347;28;20137;-65
2021/12/20 07:18:28;;;;;;;;;;;;;;;-15.99;86.81;102193.75;5014243;28;20020;-64
2021/12/20 07:20:55;;;;;;;1.40;1.30;;;;;;;-16.06;87.74;102188.28;5013709;28;20362;-64
2021/12/20 07:23:23;;;;;;;1.33;1.30;;;;;;;-15.95;87.21;102193.22;5013880;28;20480;-64
2021/12/20 07:25:51;;;;;;;1.60;1.50;;;;;;;-15.88;87.47;102180.44;5013541;28;20052;-67
2021/12/20 07:28:19;;;;;;;2.67;2.05;;;;;;;-15.85;87.25;102180.69;5013459;28;20140;-65
2021/12/20 07:30:46;;;;;;;1.55;1.45;;;;;;;-15.70;86.57;102186.81;5013694;28;20046;-64
2021/12/20 07:33:15;;;;;;;1.50;1.40;;;;;;;-15.70;86.53;102183.44;5013731;28;20077;-64
2021/12/20 07:35:42;;;;;;;2.78;2.10;;;;;;;-15.80;85.95;102179.41;5013599;28;20056;-67
2021/12/20 07:38:12;;;;;;;1.45;1.35;;;;;;;-15.78;86.28;102177.03;5013528;28;20543;-65
2021/12/20 07:40:42;;;;;;;2.28;2.08;;;;;;;-15.69;86.13;102186.06;5013322;28;20053;-64
2021/12/20 07:43:11;;;;;;;2.28;1.88;;;;;;;-15.77;86.01;102187.13;5013647;28;20133;-67
2021/12/20 07:45:37;;;;;;;1.70;1.60;;;;;;;-15.61;85.70;102181.59;5013527;28;20077;-64
2021/12/20 07:48:05;;;;;;;1.58;1.30;;;;;;;-15.67;86.04;102179.50;5013528;28;20137;-67
2021/12/20 07:50:32;;;;;;;1.30;1.30;;;;;;;-15.67;85.68;102179.50;5012906;28;20132;-64
2021/12/20 07:52:59;;;;;;;;;;;;;;;-15.65;86.08;102187.13;5013815;28;20132;-66
2021/12/20 07:55:25;;;;;;;;;;;;;;;-15.67;85.86;102181.13;5013899;28;19921;-67
2021/12/20 07:57:52;;;;;;;;;;;;;;;-15.63;85.89;102183.97;5013830;28;19930;-64
2021/12/20 08:00:20;;;;;;;1.48;1.38;;;;;;;-15.67;86.13;102177.00;5012953;28;19931;-68
2021/12/20 08:02:48;;;;;;;2.42;1.58;;;;;;;-15.85;86.25;102183.16;5012999;28;20145;-66
2021/12/20 08:05:15;;;;;;;;;;;;;;;-15.68;86.11;102177.78;5013596;28;20273;-65
2021/12/20 08:07:45;;;;;;;0.90;0.90;;;;;;;-15.75;86.39;102183.09;5013075;28;19925;-64
2021/12/20 08:10:12;;;;;;;1.20;1.17;;;;;;;-15.77;86.16;102184.63;5012274;28;20477;-67
2021/12/20 08:12:39;;;;;;;1.40;1.40;;;;;;;-15.67;85.73;102178.63;5012886;28;20096;-66
2021/12/20 08:15:07;;;;;;;1.33;1.30;;;;;;;-15.76;85.55;102183.88;5012714;28;20527;-67
2021/12/20 08:17:35;;;;;;;1.42;1.33;;;;;;;-15.86;85.97;102182.31;5012878;28;20132;-64
2021/12/20 08:20:03;;;;;;;2.20;1.70;;;;;;;-15.91;86.17;102182.72;5012801;28;20587;-64
2021/12/20 08:22:30;;;;;;;2.15;1.85;;;;;;;-15.84;86.27;102185.78;5012768;28;20067;-64
2021/12/20 08:24:57;;;;;;;1.50;1.40;;;;;;;-15.91;86.44;102187.72;5012981;28;20145;-64
2021/12/20 08:27:25;;;;;;;2.15;1.95;;;;;;;-15.97;87.19;102182.28;5012782;28;20060;-65
2021/12/20 08:29:51;;;;;;;;;;;;;;;-15.99;86.97;102183.78;5013070;28;20054;-64
2021/12/20 08:32:19;;;;;;;1.75;1.63;;;;;;;-15.97;87.36;102180.66;5012439;28;19922;-64
2021/12/20 08:34:47;;;;;;;1.85;1.27;;;;;;;-15.81;85.85;102183.53;5012606;28;20559;-64
2021/12/20 08:37:14;;;;;;;1.60;1.50;;;;;;;-15.87;86.70;102182.22;5012579;28;20576;-64
2021/12/20 08:39:41;;;;;;;1.08;1.08;;;;;;;-15.85;86.51;102176.59;5012715;28;20133;-64
2021/12/20 08:42:09;;;;;;;1.67;1.50;;;;;;;-15.87;85.67;102169.75;5012592;28;20136;-64
2021/12/20 08:44:36;;;;;;;2.03;1.92;;;;;;;-15.91;85.43;102165.28;5012544;28;21329;-65
2021/12/20 08:47:03;;;;;;;1.83;1.73;;;;;;;-16.00;86.42;102162.97;5012313;28;20052;-64
2021/12/20 08:49:30;;;;;;;1.70;1.50;;;;;;;-15.94;85.88;102163.41;5012513;28;20046;-66
2021/12/20 08:52:00;;;;;;;1.42;1.33;;;;;;;-15.99;86.51;102153.88;5012527;28;20064;-64
2021/12/20 08:54:29;;;;;;;1.13;1.13;;;;;;;-15.91;86.48;102155.28;5012587;28;20054;-64
2021/12/20 08:56:56;;;;;;;1.40;1.30;;;;;;;-15.84;86.06;102157.50;5012558;28;20041;-64
2021/12/20 08:59:23;;;;;;;1.40;1.27;;;;;;;-15.80;85.18;102159.44;5012230;28;20141;-65
2021/12/20 09:01:50;;;;;;;1.65;1.55;;;;;;;-15.81;86.02;102160.22;5012050;28;20104;-64
2021/12/20 09:04:17;;;;;;;2.97;2.10;;;;;;;-15.99;86.12;102153.88;5012138;28;20045;-64
2021/12/20 09:06:44;;;;;;;;;;;;;;;-16.04;86.02;102144.41;5012709;28;20108;-64
2021/12/20 09:09:13;;;;;;;;;;;;;;;-15.89;85.67;102154.66;5012794;28;19922;-64
2021/12/20 09:11:41;;;;;;;1.45;1.35;;;;;;;-15.81;85.78;102152.72;5012255;28;19928;-65
2021/12/20 09:14:08;;;;;;;1.60;1.50;;;;;;;-15.84;85.05;102145.03;5012013;28;20129;-64
2021/12/20 09:16:36;;;;;;;1.80;1.70;;;;;;;-15.92;85.58;102153.56;5011938;28;20481;-63
2021/12/20 09:19:03;;;;;;;1.60;1.42;;;;;;;-15.85;85.53;102139.16;5012223;28;20558;-63
2021/12/20 09:21:30;;;;;;;1.40;1.30;;;;;;;-15.76;85.13;102129.00;5015413;28;20078;-66
2021/12/20 09:23:57;;;;;;;1.30;1.30;;;;;;;-15.81;85.67;102132.78;5015935;28;20544;-64
2021/12/20 09:26:26;;;;;;;2.10;1.90;;;;;;;-15.79;85.60;102122.91;5015907;28;20141;-65
2021/12/20 09:28:53;;;;;;;2.20;2.03;;;;;;;-15.71;85.04;102122.72;5015894;28;20050;-65
2021/12/20 09:31:20;;;;;;;1.55;1.45;;;;;;;-15.72;85.65;102123.47;5015753;28;20057;-63
2021/12/20 09:33:47;;;;;;;1.40;1.30;;;;;;;-15.67;84.76;102127.09;5015776;28;20140;-65
2021/12/20 09:36:14;;;;;;;2.40;1.30;;;;;;;-15.52;84.67;102126.50;5015903;28;20041;-64
2021/12/20 09:38:41;;;;;;;1.48;1.38;;;;;;;-15.54;84.91;102126.38;5015849;28;20148;-64
2021/12/20 09:41:59;;;;;;;1.60;1.50;;;;;;;-15.38;83.99;102126.72;5015623;28;20080;-64
2021/12/20 09:44:07;;;;;;;0.90;0.90;;;;;;;-15.25;83.90;102121.00;5015737;28;20484;-64
2021/12/20 09:46:34;;;;;;;2.90;1.65;;;;;;;-15.35;84.55;102121.09;5015680;28;20068;-64
2021/12/20 09:49:02;;;;;;;2.28;2.08;;;;;;;-15.37;83.79;102123.47;5015535;28;20050;-64
2021/12/20 09:51:29;;;;;;;2.67;1.70;;;;;;;-15.40;83.98;102128.25;5015386;28;20049;-64
2021/12/20 09:53:56;;;;;;;;;;;;;;;-15.23;83.89;102138.56;5015854;28;20148;-64
2021/12/20 09:56:25;;;;;;;1.50;1.40;;;;;;;-15.36;85.15;102142.69;5015646;28;19925;-64
2021/12/20 09:58:54;;;;;;;2.45;1.75;;;;;;;-15.26;84.33;102133.34;5015667;28;20050;-65
2021/12/20 10:01:23;;;;;;;3.47;1.95;;;;;;;-15.26;84.83;102130.84;5015252;28;20050;-67
2021/12/20 10:03:50;;;;;;;1.83;1.73;;;;;;;-15.43;85.21;102129.66;5015260;28;20064;-65
2021/12/20 10:06:17;;;;;;;1.33;1.33;;;;;;;-15.19;84.37;102116.41;5015029;28;20504;-65
2021/12/20 10:08:50;;;;;;;;;;;;;;;-15.16;84.22;102113.28;5015475;28;20136;-64
2021/12/20 10:11:22;;;;;;;1.63;1.52;;;;;;;-15.21;84.55;102107.94;5014937;28;19922;-64
2021/12/20 10:13:50;;;;;;;2.15;2.03;;;;;;;-15.13;84.16;102096.00;5015410;28;20045;-63
2021/12/20 10:16:19;;;;;;;2.30;1.65;;;;;;;-15.09;84.39;102095.47;5015015;28;20559;-64
2021/12/20 10:18:48;;;;;;;1.88;1.75;;;;;;;-15.05;84.29;102104.03;5014999;28;20041;-64
2021/12/20 10:21:16;;;;;;;2.50;1.88;;;;;;;-15.10;84.54;102090.34;5026514;23;20049;-73
2021/12/20 10:23:45;;;;;;;1.77;1.33;;;;;;;-15.04;84.57;102081.66;5014994;28;20415;-71
2021/12/20 10:26:14;;;;;;;2.15;1.77;;;;;;;-14.97;84.95;102095.47;5015034;28;20054;-71
2021/12/20 10:28:42;;;;;;;1.70;1.60;;;;;;;-14.99;85.12;102087.00;5014968;28;20081;-73
2021/12/20 10:31:11;;;;;;;1.77;1.67;;;;;;;-14.88;85.17;102080.22;5014910;28;20427;-71
2021/12/20 10:33:39;;;;;;;2.33;1.70;;;;;;;-14.92;84.58;102079.16;5014281;28;20133;-72
2021/12/20 10:36:10;;;;;;;4.88;1.80;;;;;;;-14.88;84.73;102081.09;5014899;28;20052;-72
2021/12/20 10:38:39;;;;;;;2.50;2.00;;;;;;;-14.77;84.31;102087.72;5015234;28;20096;-72
2021/12/20 10:41:08;;;;;;;1.30;1.20;;;;;;;-14.82;84.93;102079.03;5014930;28;20052;-71
2021/12/20 10:43:37;;;;;;;1.70;1.60;;;;;;;-14.83;85.08;102069.78;5014816;28;20077;-71
2021/12/20 10:46:14;;;;;;;1.48;1.35;;;;;;;-14.77;85.22;102080.22;5014523;28;20046;-72
2021/12/20 10:48:42;;;;;;;1.60;1.50;;;;;;;-14.63;84.84;102072.78;5014782;28;21012;-71
2021/12/20 10:51:20;;;;;;;1.20;1.20;;;;;;;-14.63;84.96;102071.16;5014510;28;20045;-72
2021/12/20 10:53:48;;;;;;;1.20;1.20;;;;;;;-14.57;84.57;102061.56;5014410;28;20050;-72
2021/12/20 10:56:15;;;;;;;0.90;0.90;;;;;;;-14.54;84.73;102066.78;5014467;28;20057;-72
2021/12/20 10:58:42;;;;;;;1.38;1.38;;;;;;;-14.49;84.64;102070.44;5014189;28;20057;-72
2021/12/20 11:01:25;;;;;;;1.48;1.40;;;;;;;-14.40;84.79;102072.66;5014286;28;20132;-72
2021/12/20 11:04:03;;;;;;;1.48;1.38;;;;;;;-14.43;85.19;102064.97;5014134;28;20096;-72
2021/12/20 11:06:55;;;;;;;1.33;1.20;;;;;;;-14.44;84.95;102067.34;5014165;28;20049;-72
2021/12/20 11:09:22;;;;;;;1.20;1.20;;;;;;;-14.36;84.36;102061.22;5014201;28;20050;-72
2021/12/20 11:11:51;;;;;;;0.95;0.95;;;;;;;-14.36;85.04;102069.59;5014084;28;20054;-72
2021/12/20 11:14:21;;;;;;;1.25;1.25;;;;;;;-14.26;84.93;102073.56;5013949;28;20583;-72
2021/12/20 11:16:50;;;;;;;10.13;2.13;;;;;;;-14.34;85.18;102070.56;5013918;28;20084;-72
2021/12/20 11:19:26;;;;;;;1.55;1.45;;;;;;;-14.27;85.28;102061.84;5013919;28;20492;-72
2021/12/20 11:21:57;;;;;;;2.57;1.83;;;;;;;-14.35;85.61;102065.47;5025429;23;20141;-66
2021/12/20 11:24:27;;;;;;;1.38;1.27;;;;;;;-14.26;85.65;102061.06;5013906;28;20046;-64
2021/12/20 11:26:55;;;;;;;1.15;1.15;;;;;;;-14.16;85.09;102070.06;5013822;28;20133;-65
2021/12/20 11:29:22;;;;;;;1.48;1.38;;;;;;;-14.22;86.03;102068.03;5013615;28;20141;-65
2021/12/20 11:31:50;;;;;;;1.50;1.40;;;;;;;-14.19;86.11;102065.72;5013427;28;20053;-65
2021/12/20 11:34:17;;;;;;;1.08;1.08;;;;;;;-14.24;85.76;102067.06;5013678;28;20140;-68
2021/12/20 11:36:44;;;;;;;;;;;;;;;-14.33;86.17;102059.81;5014019;28;20137;-64
2021/12/20 11:39:13;;;;;;;1.48;1.38;;;;;;;-14.14;86.10;102056.03;5013928;28;19953;-65